Time;durP1;ratioP1;P1;durP2;ratioP2;P2;SDS_P1;SDS_P2;PMS_P1;PMS_P2;Temp;Humidity;BMP_temperature;BMP_pressure;BME280_temperature;BME280_humidity;BME280_pressure;Samples;Min_cycle;Max_cycle;Signal;HPM_P1;HPM_P2
2022/03/21 00:00:53;;;;;;;11.07;9.63;;;3.40;79.10;;;;;;5069487;28;20193;-73
2022/03/21 00:03:21;;;;;;;13.67;9.93;;;3.30;78.70;;;;;;5069167;28;20214;-73
2022/03/21 00:05:47;;;;;;;12.97;10.03;;;3.30;79.30;;;;;;5065635;28;20179;-73
2022/03/21 00:08:15;;;;;;;10.43;9.27;;;3.20;79.10;;;;;;5063952;28;20206;-73
2022/03/21 00:10:41;;;;;;;13.77;9.87;;;3.20;79.90;;;;;;5072211;28;20163;-71
2022/03/21 00:13:08;;;;;;;9.60;8.60;;;3.10;79.80;;;;;;5067776;28;20180;-73
2022/03/21 00:15:34;;;;;;;10.27;8.13;;;3.20;79.70;;;;;;5064034;28;20237;-73
2022/03/21 00:18:02;;;;;;;10.63;9.33;;;3.10;79.20;;;;;;5062623;28;20213;-73
2022/03/21 00:20:29;;;;;;;10.57;9.23;;;3.10;79.80;;;;;;5070170;28;20183;-73
2022/03/21 00:22:55;;;;;;;12.53;9.00;;;3.00;79.70;;;;;;5066285;28;20653;-73
2022/03/21 00:25:21;;;;;;;10.73;9.17;;;3.00;79.90;;;;;;5065744;28;20294;-73
2022/03/21 00:27:47;;;;;;;16.70;9.60;;;2.90;79.90;;;;;;5064589;28;20334;-73
2022/03/21 00:30:13;;;;;;;12.47;9.40;;;2.90;80.00;;;;;;5072465;28;20171;-73
2022/03/21 00:32:38;;;;;;;10.37;9.17;;;2.90;80.60;;;;;;5065678;28;20207;-73
2022/03/21 00:35:09;;;;;;;10.40;9.13;;;2.80;81.20;;;;;;5065589;28;20774;-73
2022/03/21 00:37:37;;;;;;;11.27;9.07;;;2.80;81.80;;;;;;5066007;28;20178;-71
2022/03/21 00:40:05;;;;;;;11.17;8.30;;;2.70;82.10;;;;;;5071892;28;20186;-71
2022/03/21 00:42:32;;;;;;;11.57;8.80;;;2.70;82.40;;;;;;5071406;28;20179;-71
2022/03/21 00:44:58;;;;;;;10.67;8.90;;;2.70;82.90;;;;;;5066635;28;20199;-73
2022/03/21 00:47:24;;;;;;;10.70;8.83;;;2.70;83.40;;;;;;5066083;28;20889;-72
2022/03/21 00:49:52;;;;;;;11.63;8.63;;;2.70;83.20;;;;;;5061753;28;20163;-73
2022/03/21 00:52:18;;;;;;;10.20;8.47;;;2.70;82.50;;;;;;5057954;28;20180;-73
2022/03/21 00:54:44;;;;;;;12.00;9.07;;;2.70;82.50;;;;;;5067012;28;20279;-73
2022/03/21 00:57:09;;;;;;;11.33;9.57;;;2.60;83.00;;;;;;5056294;28;20263;-73
2022/03/21 00:59:35;;;;;;;9.80;8.80;;;2.60;83.30;;;;;;5060825;28;20411;-73
2022/03/21 01:02:01;;;;;;;10.50;8.77;;;2.50;83.70;;;;;;5061843;28;20658;-72
2022/03/21 01:04:26;;;;;;;10.70;9.60;;;2.50;83.80;;;;;;5066297;28;20596;-73
2022/03/21 01:06:52;;;;;;;10.03;9.03;;;2.50;83.70;;;;;;5065973;28;20275;-73
2022/03/21 01:09:17;;;;;;;11.30;8.37;;;2.40;84.10;;;;;;5064069;28;20541;-73
2022/03/21 01:11:44;;;;;;;9.90;8.63;;;2.40;85.20;;;;;;5066946;28;20179;-73
2022/03/21 01:14:10;;;;;;;11.03;9.00;;;2.30;84.70;;;;;;5068199;28;20199;-72
2022/03/21 01:16:37;;;;;;;14.00;9.27;;;2.30;85.10;;;;;;5074985;28;20171;-72
2022/03/21 01:19:04;;;;;;;14.57;9.60;;;2.30;85.10;;;;;;5072456;28;20179;-72
2022/03/21 01:21:30;;;;;;;10.20;9.10;;;2.20;85.80;;;;;;5067356;28;20177;-73
2022/03/21 01:23:56;;;;;;;10.83;9.07;;;2.10;86.10;;;;;;5067246;28;20262;-72
2022/03/21 01:26:22;;;;;;;11.87;8.53;;;2.10;87.30;;;;;;5068735;28;20287;-72
2022/03/21 01:28:47;;;;;;;12.40;9.57;;;2.10;86.90;;;;;;5063544;28;20589;-71
2022/03/21 01:31:13;;;;;;;9.80;8.40;;;2.00;86.90;;;;;;5070137;28;20171;-73
2022/03/21 01:33:40;;;;;;;10.93;8.43;;;2.10;87.00;;;;;;5064047;28;20511;-73
2022/03/21 01:36:07;;;;;;;11.93;9.13;;;2.00;87.10;;;;;;5065803;28;20274;-73
2022/03/21 01:38:33;;;;;;;11.17;9.20;;;2.00;87.70;;;;;;5074859;28;20182;-73
2022/03/21 01:40:59;;;;;;;10.77;8.43;;;1.90;88.30;;;;;;5064847;28;20179;-73
2022/03/21 01:43:24;;;;;;;9.97;8.63;;;1.90;88.90;;;;;;5070748;28;20652;-71
2022/03/21 01:45:50;;;;;;;12.60;9.17;;;1.90;88.40;;;;;;5079661;28;20177;-72
2022/03/21 01:48:16;;;;;;;9.83;8.77;;;1.90;88.20;;;;;;5076619;28;20602;-72
2022/03/21 01:50:42;;;;;;;10.50;8.70;;;1.90;88.90;;;;;;5068960;28;20176;-73
2022/03/21 01:55:58;;;;;;;9.93;8.87;;;1.80;89.40;;;;;;5065718;28;20185;-73
2022/03/21 01:58:25;;;;;;;11.07;8.90;;;1.70;89.70;;;;;;5068627;28;20214;-73
2022/03/21 02:00:51;;;;;;;12.03;8.67;;;1.70;89.80;;;;;;5061797;28;20589;-73
2022/03/21 02:03:19;;;;;;;8.70;7.80;;;1.70;90.00;;;;;;5071764;28;20205;-73
2022/03/21 02:05:47;;;;;;;9.30;8.27;;;1.60;89.80;;;;;;5069443;28;20681;-73
2022/03/21 02:08:13;;;;;;;13.27;8.77;;;1.60;89.90;;;;;;5064906;28;20208;-73
2022/03/21 02:10:42;;;;;;;13.03;9.03;;;1.60;89.50;;;;;;5070938;28;20187;-73
2022/03/21 02:13:09;;;;;;;9.63;8.37;;;1.60;89.50;;;;;;5068241;28;20176;-71
2022/03/21 02:15:36;;;;;;;10.27;8.60;;;1.50;89.90;;;;;;5070246;28;20202;-71
2022/03/21 02:18:03;;;;;;;10.17;8.63;;;1.50;89.90;;;;;;5068206;28;20209;-71
2022/03/21 02:20:35;;;;;;;10.23;8.50;;;1.50;90.10;;;;;;5067647;28;20190;-72
2022/03/21 02:23:19;;;;;;;8.67;7.77;;;1.50;90.10;;;;;;5068731;28;20178;-73
2022/03/21 02:25:45;;;;;;;9.97;8.87;;;1.50;90.10;;;;;;5069241;28;20245;-72
2022/03/21 02:28:13;;;;;;;9.40;8.33;;;1.50;90.10;;;;;;5066601;28;20701;-73
2022/03/21 02:30:42;;;;;;;9.80;8.07;;;1.40;90.40;;;;;;5068419;28;20220;-71
2022/03/21 02:33:08;;;;;;;9.37;8.37;;;1.40;90.40;;;;;;5064330;28;20206;-71
2022/03/21 02:35:35;;;;;;;9.60;8.47;;;1.40;90.60;;;;;;5066698;28;20240;-73
2022/03/21 02:38:01;;;;;;;9.80;8.73;;;1.40;90.50;;;;;;5067790;28;20650;-73
2022/03/21 02:40:27;;;;;;;10.77;8.97;;;1.40;91.00;;;;;;5067758;28;20179;-71
2022/03/21 02:42:53;;;;;;;10.70;8.80;;;1.30;91.10;;;;;;5069867;28;20175;-73
2022/03/21 02:45:19;;;;;;;10.47;8.83;;;1.30;91.10;;;;;;5067251;28;20573;-72
2022/03/21 02:47:45;;;;;;;9.80;8.73;;;1.30;91.30;;;;;;5065521;28;20205;-72
2022/03/21 02:50:18;;;;;;;10.17;9.07;;;1.30;91.40;;;;;;5070919;28;20277;-72
2022/03/21 02:52:47;;;;;;;10.80;8.77;;;1.30;91.60;;;;;;5065682;28;20183;-72
2022/03/21 02:55:13;;;;;;;10.37;8.50;;;1.30;91.60;;;;;;5068212;28;20204;-72
2022/03/21 02:57:39;;;;;;;12.00;7.70;;;1.20;91.50;;;;;;5069144;28;20190;-72
2022/03/21 03:00:05;;;;;;;10.43;8.63;;;1.20;91.80;;;;;;5068879;28;20183;-72
2022/03/21 03:02:31;;;;;;;10.07;8.47;;;1.10;91.80;;;;;;5067592;28;20662;-72
2022/03/21 03:04:56;;;;;;;11.47;8.33;;;1.10;92.10;;;;;;5070795;28;20202;-73
2022/03/21 03:07:22;;;;;;;11.67;8.27;;;1.10;91.70;;;;;;5066949;28;20225;-72
2022/03/21 03:09:47;;;;;;;9.97;8.50;;;1.00;92.00;;;;;;5068818;28;20370;-73
2022/03/21 03:12:13;;;;;;;10.43;8.20;;;1.00;92.10;;;;;;5072699;28;20262;-73
2022/03/21 03:14:39;;;;;;;10.03;8.07;;;1.00;92.00;;;;;;5067537;28;20203;-73
2022/03/21 03:17:05;;;;;;;8.70;7.33;;;1.00;91.90;;;;;;5064053;28;20206;-73
2022/03/21 03:19:31;;;;;;;10.07;8.50;;;0.90;92.30;;;;;;5070048;28;20176;-73
2022/03/21 03:21:57;;;;;;;9.50;7.93;;;0.90;92.10;;;;;;5060364;28;20308;-72
2022/03/21 03:24:26;;;;;;;9.20;8.30;;;0.90;92.50;;;;;;5068150;28;20583;-73
2022/03/21 03:26:52;;;;;;;9.97;8.70;;;0.80;93.00;;;;;;5064196;28;20211;-73
2022/03/21 03:29:17;;;;;;;11.13;8.63;;;0.80;93.00;;;;;;5062743;28;20260;-72
2022/03/21 03:31:44;;;;;;;9.97;8.97;;;0.80;92.70;;;;;;5071638;28;20525;-73
2022/03/21 03:34:11;;;;;;;9.90;8.60;;;0.80;93.00;;;;;;5067229;28;20199;-73
2022/03/21 03:36:38;;;;;;;10.37;8.83;;;0.80;92.80;;;;;;5068434;28;20196;-73
2022/03/21 03:39:04;;;;;;;10.57;8.80;;;0.80;93.00;;;;;;5062270;28;20202;-73
2022/03/21 03:41:30;;;;;;;9.20;8.03;;;0.80;93.00;;;;;;5069025;28;20189;-73
2022/03/21 03:43:56;;;;;;;10.10;7.97;;;0.70;93.10;;;;;;5064366;28;20264;-73
2022/03/21 03:46:22;;;;;;;10.80;8.57;;;0.70;93.30;;;;;;5066168;28;20651;-74
2022/03/21 03:48:48;;;;;;;9.60;8.07;;;0.70;93.70;;;;;;5067401;28;20255;-73
2022/03/21 03:51:14;;;;;;;10.70;9.13;;;0.70;93.70;;;;;;5067023;28;20279;-73
2022/03/21 03:53:41;;;;;;;8.87;7.77;;;0.60;94.00;;;;;;5069494;28;20203;-73
2022/03/21 03:56:07;;;;;;;8.87;7.93;;;0.60;93.70;;;;;;5068931;28;20234;-73
2022/03/21 03:58:34;;;;;;;11.03;8.67;;;0.60;93.50;;;;;;5066183;28;20669;-73
2022/03/21 04:00:59;;;;;;;9.37;7.90;;;0.60;94.20;;;;;;5063930;28;20180;-73
2022/03/21 04:06:09;;;;;;;9.63;8.10;;;0.50;94.10;;;;;;5067555;28;20197;-73
2022/03/21 04:08:35;;;;;;;10.07;8.37;;;0.50;93.80;;;;;;5062301;28;20286;-72
2022/03/21 04:11:00;;;;;;;9.03;8.13;;;0.50;94.10;;;;;;5060493;28;20258;-72
2022/03/21 04:13:26;;;;;;;9.83;8.83;;;0.50;94.10;;;;;;5062180;28;20190;-72
2022/03/21 04:15:52;;;;;;;12.17;8.40;;;0.40;94.20;;;;;;5061290;28;20228;-72
2022/03/21 04:18:17;;;;;;;10.57;7.80;;;0.40;94.30;;;;;;5056553;28;20226;-72
2022/03/21 04:20:43;;;;;;;12.00;9.50;;;0.30;94.40;;;;;;5069263;28;20213;-73
2022/03/21 04:23:11;;;;;;;9.50;8.50;;;0.40;94.40;;;;;;5065891;28;20657;-72
2022/03/21 04:25:37;;;;;;;10.60;9.50;;;0.30;94.70;;;;;;5055895;28;20713;-73
2022/03/21 04:28:10;;;;;;;12.80;10.23;;;0.30;95.00;;;;;;5061398;28;20203;-74
2022/03/21 04:30:37;;;;;;;10.00;8.57;;;0.20;95.40;;;;;;5069160;28;20173;-73
2022/03/21 04:33:03;;;;;;;12.17;9.67;;;0.30;95.40;;;;;;5065884;28;20766;-73
2022/03/21 04:35:29;;;;;;;16.10;9.70;;;0.30;95.50;;;;;;5067633;28;20191;-73
2022/03/21 04:37:55;;;;;;;10.60;9.27;;;0.20;96.00;;;;;;5063353;28;20562;-73
2022/03/21 04:40:22;;;;;;;11.20;9.43;;;0.20;96.10;;;;;;5066617;28;20190;-72
2022/03/21 04:42:48;;;;;;;10.50;9.37;;;0.20;95.90;;;;;;5064852;28;20179;-73
2022/03/21 04:45:14;;;;;;;9.63;8.60;;;0.20;96.00;;;;;;5068695;28;20263;-73
2022/03/21 04:47:39;;;;;;;9.27;7.90;;;0.20;96.10;;;;;;5070705;28;20664;-73
2022/03/21 04:50:07;;;;;;;10.73;8.27;;;0.20;96.80;;;;;;5070516;28;20193;-73
2022/03/21 04:52:33;;;;;;;10.67;9.23;;;0.20;97.10;;;;;;5069034;28;20175;-73
2022/03/21 04:55:00;;;;;;;10.30;8.97;;;0.20;97.30;;;;;;5072278;28;20195;-73
2022/03/21 04:57:27;;;;;;;9.97;8.93;;;0.20;97.50;;;;;;5072675;28;20715;-71
2022/03/21 04:59:54;;;;;;;9.50;8.50;;;0.10;97.80;;;;;;5075446;28;20167;-71
2022/03/21 05:02:20;;;;;;;9.87;8.70;;;0.10;97.90;;;;;;5065633;28;20230;-71
2022/03/21 05:04:45;;;;;;;10.90;9.00;;;0.10;98.00;;;;;;5066958;28;20633;-71
2022/03/21 05:07:17;;;;;;;10.63;8.27;;;0.10;98.20;;;;;;5071280;28;20229;-71
2022/03/21 05:09:44;;;;;;;11.97;9.47;;;0.10;98.40;;;;;;5068788;28;20542;-71
2022/03/21 05:12:11;;;;;;;10.20;8.87;;;0.10;98.60;;;;;;5066409;28;20707;-72
2022/03/21 05:14:37;;;;;;;10.20;8.30;;;0.00;99.00;;;;;;5071557;28;20205;-72
2022/03/21 05:17:03;;;;;;;12.63;9.17;;;-0.10;99.10;;;;;;5068707;28;20575;-72
2022/03/21 05:19:30;;;;;;;13.73;8.80;;;0.00;99.30;;;;;;5072726;28;20179;-72
2022/03/21 05:21:55;;;;;;;9.87;8.23;;;-0.10;99.60;;;;;;5073164;28;20183;-73
2022/03/21 05:32:33;;;;;;;11.60;8.00;;;-0.10;99.40;;;;;;5072326;28;20674;-73
2022/03/21 05:37:43;;;;;;;10.57;9.23;;;0.00;99.80;;;;;;5066717;28;20181;-72
2022/03/21 05:42:55;;;;;;;10.23;8.00;;;0.00;99.80;;;;;;5068861;28;20564;-73
2022/03/21 05:45:20;;;;;;;10.13;7.93;;;0.10;99.90;;;;;;5067545;28;20423;-74
2022/03/21 05:50:36;;;;;;;11.70;8.90;;;0.10;99.90;;;;;;5075534;28;20280;-73
2022/03/21 05:53:03;;;;;;;9.63;8.67;;;0.10;99.90;;;;;;5066139;28;20183;-74
2022/03/21 05:55:30;;;;;;;12.27;9.27;;;0.20;99.90;;;;;;5077148;28;20196;-73
2022/03/21 05:57:56;;;;;;;13.07;9.10;;;0.20;99.90;;;;;;5070512;28;20258;-75
2022/03/21 06:00:22;;;;;;;11.57;9.23;;;0.20;99.90;;;;;;5068629;28;20578;-74
2022/03/21 06:02:48;;;;;;;10.37;8.73;;;0.30;99.90;;;;;;5065667;28;20180;-73
2022/03/21 06:05:14;;;;;;;10.63;9.07;;;0.40;99.90;;;;;;5066047;28;20257;-73
2022/03/21 06:07:40;;;;;;;11.80;9.17;;;0.50;99.30;;;;;;5064653;28;20203;-73
2022/03/21 06:10:06;;;;;;;10.83;9.70;;;0.60;99.50;;;;;;5067071;28;20210;-71
2022/03/21 06:12:32;;;;;;;10.40;8.87;;;0.60;99.00;;;;;;5069145;28;20310;-72
2022/03/21 06:14:58;;;;;;;9.63;8.60;;;0.70;99.50;;;;;;5070603;28;20199;-70
2022/03/21 06:17:23;;;;;;;13.00;9.20;;;0.90;98.80;;;;;;5061626;28;20552;-69
2022/03/21 06:19:49;;;;;;;11.60;9.10;;;1.00;98.50;;;;;;5070277;28;20184;-71
2022/03/21 06:22:15;;;;;;;8.57;7.70;;;1.00;98.30;;;;;;5066415;28;20186;-70
2022/03/21 06:24:40;;;;;;;13.20;9.53;;;1.10;97.70;;;;;;5066346;28;20662;-70
2022/03/21 06:27:06;;;;;;;13.07;8.53;;;1.20;97.30;;;;;;5062451;28;20220;-69
2022/03/21 06:29:31;;;;;;;11.43;9.43;;;1.30;97.10;;;;;;5068527;28;20240;-72
2022/03/21 06:31:57;;;;;;;9.90;8.90;;;1.40;96.40;;;;;;5068095;28;20187;-73
2022/03/21 06:34:23;;;;;;;9.67;8.23;;;1.50;96.10;;;;;;5067547;28;20701;-73
2022/03/21 06:36:49;;;;;;;13.57;9.40;;;1.50;96.10;;;;;;5063468;28;20179;-72
2022/03/21 06:39:14;;;;;;;11.97;10.63;;;1.60;96.30;;;;;;5069960;28;20191;-72
2022/03/21 06:41:44;;;;;;;9.87;8.87;;;1.60;95.80;;;;;;5067285;28;20252;-70
2022/03/21 06:44:10;;;;;;;12.53;9.10;;;1.70;95.80;;;;;;5063354;28;20202;-71
2022/03/21 06:46:36;;;;;;;12.77;9.23;;;1.70;96.00;;;;;;5064453;28;20175;-72
2022/03/21 06:49:01;;;;;;;9.77;8.73;;;1.70;95.70;;;;;;5065559;28;20194;-70
2022/03/21 06:51:28;;;;;;;11.37;9.77;;;1.80;95.60;;;;;;5070082;28;20183;-70
2022/03/21 06:53:53;;;;;;;12.40;10.13;;;1.90;95.60;;;;;;5067113;28;20214;-70
2022/03/21 06:56:19;;;;;;;9.93;8.87;;;2.00;95.60;;;;;;5070659;28;20563;-71
2022/03/21 06:58:44;;;;;;;11.43;9.63;;;2.10;95.70;;;;;;5066097;28;20207;-69
2022/03/21 07:01:10;;;;;;;13.83;9.30;;;2.20;95.20;;;;;;5065179;28;20183;-71
2022/03/21 07:03:36;;;;;;;10.87;9.00;;;2.30;94.90;;;;;;5062449;28;20279;-71
2022/03/21 07:06:02;;;;;;;9.97;8.97;;;2.30;94.80;;;;;;5057337;28;20604;-73
2022/03/21 07:08:27;;;;;;;12.83;10.30;;;2.30;95.00;;;;;;5062853;28;20245;-72
2022/03/21 07:10:53;;;;;;;13.53;10.33;;;2.40;95.10;;;;;;5063380;28;20615;-72
2022/03/21 07:13:18;;;;;;;10.97;9.10;;;2.40;94.80;;;;;;5060707;28;20187;-72
2022/03/21 07:15:44;;;;;;;11.43;9.00;;;2.50;94.50;;;;;;5066191;28;20187;-72
2022/03/21 07:18:10;;;;;;;12.33;9.77;;;2.60;94.30;;;;;;5063765;28;20234;-72
2022/03/21 07:20:37;;;;;;;10.10;9.00;;;2.70;94.40;;;;;;5062877;28;20227;-71
2022/03/21 07:23:03;;;;;;;11.80;9.77;;;2.80;94.30;;;;;;5066922;28;20183;-70
2022/03/21 07:25:29;;;;;;;9.73;8.80;;;2.90;93.30;;;;;;5064952;28;20211;-69
2022/03/21 07:27:55;;;;;;;10.23;9.23;;;3.00;93.30;;;;;;5064985;28;20696;-72
2022/03/21 07:30:20;;;;;;;10.70;9.60;;;3.10;92.90;;;;;;5066715;28;20186;-71
2022/03/21 07:32:46;;;;;;;10.83;8.97;;;3.10;92.70;;;;;;5068213;28;20198;-72
2022/03/21 07:35:15;;;;;;;12.17;9.07;;;3.20;92.50;;;;;;5061249;28;20210;-71
2022/03/21 07:37:42;;;;;;;11.90;9.33;;;3.30;92.60;;;;;;5060562;28;20210;-72
2022/03/21 07:40:11;;;;;;;10.73;8.73;;;3.50;91.90;;;;;;5064476;28;20270;-73
2022/03/21 07:42:41;;;;;;;11.27;8.90;;;3.60;91.90;;;;;;5063223;28;20187;-70
2022/03/21 07:47:52;;;;;;;10.47;9.27;;;4.00;91.20;;;;;;5065415;28;20206;-74
2022/03/21 07:50:19;;;;;;;10.73;8.67;;;4.20;90.90;;;;;;5062352;28;20180;-72
2022/03/21 07:52:45;;;;;;;11.57;9.60;;;4.30;90.50;;;;;;5066994;28;20574;-73
2022/03/21 07:55:11;;;;;;;9.70;8.63;;;4.40;90.50;;;;;;5068120;28;20199;-73
2022/03/21 07:57:37;;;;;;;10.63;8.70;;;4.50;90.30;;;;;;5063367;28;20184;-72
2022/03/21 08:00:05;;;;;;;12.23;8.67;;;4.70;87.50;;;;;;5062871;28;20191;-72
2022/03/21 08:02:30;;;;;;;12.47;9.20;;;4.70;87.60;;;;;;5067022;28;20220;-72
2022/03/21 08:05:01;;;;;;;9.93;8.93;;;4.90;87.70;;;;;;5065438;28;20238;-71
2022/03/21 08:07:27;;;;;;;14.03;9.50;;;5.00;86.90;;;;;;5063769;28;20211;-70
2022/03/21 08:09:52;;;;;;;10.30;9.17;;;5.20;85.30;;;;;;5067759;28;20186;-70
2022/03/21 08:12:18;;;;;;;14.50;9.20;;;5.40;84.40;;;;;;5067120;28;20187;-71
2022/03/21 08:14:44;;;;;;;11.87;9.30;;;5.60;81.80;;;;;;5063624;28;20238;-70
2022/03/21 08:17:10;;;;;;;11.77;9.27;;;5.60;80.80;;;;;;5057175;28;20265;-70
2022/03/21 08:19:36;;;;;;;10.60;8.47;;;5.80;81.80;;;;;;5062484;28;20253;-70
2022/03/21 08:22:04;;;;;;;13.60;8.30;;;6.00;81.60;;;;;;5070137;28;20626;-70
2022/03/21 08:24:33;;;;;;;10.50;7.67;;;6.20;79.70;;;;;;5065770;28;20688;-70
2022/03/21 08:26:59;;;;;;;11.33;7.60;;;6.40;78.80;;;;;;5064638;28;20203;-70
2022/03/21 08:29:25;;;;;;;8.70;7.73;;;6.60;78.30;;;;;;5064906;28;20624;-70
2022/03/21 08:31:50;;;;;;;8.83;7.87;;;6.70;75.60;;;;;;5068688;28;20214;-70
2022/03/21 08:34:16;;;;;;;8.20;7.43;;;6.80;75.00;;;;;;5065987;28;20663;-70
2022/03/21 08:36:41;;;;;;;8.33;6.50;;;7.00;71.10;;;;;;5064340;28;20171;-70
2022/03/21 08:39:10;;;;;;;10.23;6.53;;;7.10;67.30;;;;;;5067809;28;20187;-69
2022/03/21 08:41:36;;;;;;;7.17;6.17;;;7.30;64.60;;;;;;5064563;28;20183;-69
2022/03/21 08:44:02;;;;;;;11.63;6.90;;;7.40;60.80;;;;;;5065415;28;20205;-72
2022/03/21 08:46:27;;;;;;;11.80;7.13;;;7.50;60.20;;;;;;5068052;28;20255;-76
2022/03/21 08:51:37;;;;;;;8.27;6.35;;;7.80;58.20;;;;;;5067679;28;20198;-70
2022/03/21 08:54:04;;;;;;;8.50;6.32;;;8.00;59.50;;;;;;5063655;28;20207;-73
2022/03/21 08:56:30;;;;;;;7.15;6.45;;;8.30;58.00;;;;;;5067259;28;20192;-73
2022/03/21 08:58:56;;;;;;;8.52;6.45;;;8.90;58.30;;;;;;5063522;28;20187;-70
2022/03/21 09:01:23;;;;;;;6.97;6.10;;;10.40;54.90;;;;;;5059727;28;20663;-72
2022/03/21 09:03:49;;;;;;;5.57;5.10;;;12.50;49.70;;;;;;5062933;28;20222;-73
2022/03/21 09:06:15;;;;;;;7.43;5.72;;;14.70;45.30;;;;;;5068081;28;20646;-71
2022/03/21 09:08:42;;;;;;;8.98;5.63;;;16.60;41.00;;;;;;5062005;28;20322;-73
2022/03/21 09:11:08;;;;;;;6.10;5.50;;;18.10;38.10;;;;;;5065753;28;20219;-75
2022/03/21 09:13:34;;;;;;;7.00;5.75;;;19.10;34.50;;;;;;5067556;28;20207;-75
2022/03/21 09:16:00;;;;;;;6.30;5.75;;;19.10;34.80;;;;;;5070259;28;20694;-76
2022/03/21 09:18:25;;;;;;;6.22;5.63;;;18.60;34.70;;;;;;5059039;28;20184;-78
2022/03/21 09:20:51;;;;;;;6.60;5.85;;;17.40;34.90;;;;;;5064606;28;20175;-75
2022/03/21 09:23:17;;;;;;;6.65;5.82;;;16.50;36.10;;;;;;5064380;28;20241;-76
2022/03/21 09:25:43;;;;;;;6.45;5.75;;;16.80;36.40;;;;;;5063890;28;20210;-74
2022/03/21 09:28:09;;;;;;;6.63;5.97;;;18.40;35.10;;;;;;5066160;28;20221;-74
2022/03/21 09:30:36;;;;;;;6.32;5.72;;;20.20;33.80;;;;;;5066772;28;20176;-75
2022/03/21 09:33:02;;;;;;;6.88;6.28;;;21.60;32.00;;;;;;5064997;28;20188;-75
2022/03/21 09:35:28;;;;;;;6.28;5.78;;;22.40;31.30;;;;;;5065110;28;20203;-75
2022/03/21 09:37:54;;;;;;;5.95;5.30;;;23.00;30.30;;;;;;5073272;28;20175;-75
2022/03/21 09:40:20;;;;;;;9.13;6.03;;;23.90;30.40;;;;;;5069876;28;20183;-75
2022/03/21 09:42:51;;;;;;;5.53;5.03;;;24.70;29.70;;;;;;5066686;28;20183;-78
2022/03/21 09:45:17;;;;;;;5.60;5.18;;;25.40;29.40;;;;;;5069856;28;20238;-77
2022/03/21 09:50:40;;;;;;;6.90;6.20;;;26.40;28.40;;;;;;5070534;28;20219;-75
2022/03/21 09:53:07;;;;;;;5.95;5.45;;;26.20;28.10;;;;;;5072382;28;20230;-79
2022/03/21 09:55:34;;;;;;;6.72;6.03;;;26.00;28.30;;;;;;5070069;28;20222;-76
2022/03/21 09:58:00;;;;;;;6.60;6.00;;;26.50;28.00;;;;;;5070564;28;20259;-75
2022/03/21 10:00:25;;;;;;;6.03;5.50;;;26.60;27.50;;;;;;5067896;28;20635;-75
2022/03/21 10:02:52;;;;;;;6.03;5.53;;;27.50;27.50;;;;;;5066420;28;20179;-75
2022/03/21 10:05:41;;;;;;;6.38;5.78;;;28.40;27.00;;;;;;5073036;28;20183;-76
2022/03/21 10:08:24;;;;;;;6.50;5.88;;;28.20;27.40;;;;;;5071439;28;20298;-75
2022/03/21 10:11:02;;;;;;;6.03;5.47;;;28.50;26.90;;;;;;5068440;28;20175;-75
2022/03/21 10:13:32;;;;;;;6.15;5.50;;;29.30;26.50;;;;;;5068571;28;20603;-75
2022/03/21 10:16:09;;;;;;;5.68;5.10;;;29.50;26.20;;;;;;5070926;28;20175;-75
2022/03/21 10:18:36;;;;;;;6.72;5.95;;;29.80;25.90;;;;;;5065885;28;20611;-75
2022/03/21 10:21:11;;;;;;;6.10;5.60;;;30.10;25.80;;;;;;5064490;28;20795;-76
2022/03/21 10:23:37;;;;;;;6.80;6.30;;;29.30;25.80;;;;;;5072865;28;20548;-75
2022/03/21 10:26:32;;;;;;;6.63;6.03;;;28.80;27.10;;;;;;5077115;28;20210;-76
2022/03/21 10:29:02;;;;;;;7.03;6.50;;;28.90;26.90;;;;;;5071714;28;20276;-75
2022/03/21 10:31:34;;;;;;;6.57;6.07;;;29.70;26.70;;;;;;5070445;28;20182;-75
2022/03/21 10:34:01;;;;;;;6.65;6.05;;;30.20;25.90;;;;;;5068426;28;20203;-76
2022/03/21 10:36:26;;;;;;;6.25;5.65;;;30.80;26.20;;;;;;5063686;28;20259;-74
2022/03/21 10:39:09;;;;;;;6.57;5.97;;;31.50;26.00;;;;;;5070344;28;20609;-75
2022/03/21 10:41:37;;;;;;;6.53;5.88;;;31.60;25.20;;;;;;5069898;28;20183;-75
2022/03/21 10:44:04;;;;;;;5.88;5.38;;;31.40;25.30;;;;;;5062159;28;20273;-74
2022/03/21 10:46:30;;;;;;;6.38;5.97;;;31.10;25.70;;;;;;5067055;28;20195;-74
2022/03/21 10:49:05;;;;;;;12.57;6.50;;;31.50;25.20;;;;;;5069868;28;20203;-74
2022/03/21 10:51:56;;;;;;;6.10;5.57;;;31.30;25.80;;;;;;5068439;28;20214;-74
2022/03/21 10:54:48;;;;;;;6.13;5.63;;;31.80;25.10;;;;;;5059570;28;20226;-75
2022/03/21 10:57:36;;;;;;;6.55;6.05;;;30.90;25.00;;;;;;5061796;28;20183;-76
2022/03/21 11:00:29;;;;;;;10.55;6.40;;;31.30;25.50;;;;;;5064261;28;20779;-73
2022/03/21 11:02:57;;;;;;;6.30;5.80;;;30.90;25.40;;;;;;5062002;28;20642;-74
2022/03/21 11:05:28;;;;;;;5.93;5.45;;;31.00;27.50;;;;;;5069131;28;20290;-76
2022/03/21 11:07:54;;;;;;;6.45;5.85;;;31.40;25.80;;;;;;5067432;28;20233;-76
2022/03/21 11:10:21;;;;;;;7.07;6.45;;;30.60;25.10;;;;;;5067688;28;20171;-76
2022/03/21 11:12:47;;;;;;;6.60;6.03;;;28.90;26.30;;;;;;5065153;28;20226;-76
2022/03/21 11:15:14;;;;;;;5.80;5.40;;;29.80;26.60;;;;;;5065086;28;20215;-74
2022/03/21 11:17:42;;;;;;;6.75;6.13;;;30.30;26.50;;;;;;5068968;28;20186;-74
2022/03/21 11:20:09;;;;;;;6.18;5.68;;;30.90;25.70;;;;;;5065491;28;20556;-74
2022/03/21 11:22:36;;;;;;;6.75;6.25;;;31.40;24.90;;;;;;5064310;28;20188;-73
2022/03/21 11:25:11;;;;;;;7.47;5.07;;;30.60;25.30;;;;;;5061474;28;20223;-72
2022/03/21 11:28:14;;;;;;;6.32;5.82;;;31.10;25.80;;;;;;5069393;28;20213;-72
2022/03/21 11:31:07;;;;;;;6.15;5.65;;;31.10;25.60;;;;;;5066672;28;20183;-72
2022/03/21 11:34:02;;;;;;;8.10;5.82;;;31.50;24.60;;;;;;5061659;28;20668;-73
2022/03/21 11:36:30;;;;;;;5.40;4.90;;;32.10;24.40;;;;;;5070014;28;20175;-72
2022/03/21 11:39:02;;;;;;;5.70;5.20;;;32.60;23.80;;;;;;5068235;28;20190;-72
2022/03/21 11:41:31;;;;;;;5.63;5.13;;;32.30;23.80;;;;;;5065723;28;20183;-72
2022/03/21 11:44:06;;;;;;;5.55;5.13;;;31.80;24.20;;;;;;5065843;28;20760;-72
2022/03/21 11:46:37;;;;;;;5.88;5.38;;;31.80;24.80;;;;;;5068866;28;20570;-72
2022/03/21 11:49:25;;;;;;;8.07;5.45;;;32.60;24.20;;;;;;5066699;28;20210;-72
2022/03/21 11:52:01;;;;;;;7.28;5.43;;;32.10;24.30;;;;;;5066817;28;20182;-72
2022/03/21 11:54:31;;;;;;;6.13;5.53;;;32.30;24.60;;;;;;5069612;28;20201;-72
2022/03/21 11:56:59;;;;;;;7.97;6.05;;;32.40;24.90;;;;;;5058762;28;20193;-72
2022/03/21 11:59:49;;;;;;;5.45;5.05;;;33.20;24.60;;;;;;5070396;28;20205;-72
2022/03/21 12:02:15;;;;;;;6.43;5.70;;;32.10;23.90;;;;;;5063005;28;20205;-72
2022/03/21 12:04:41;;;;;;;5.88;5.45;;;30.60;24.80;;;;;;5070611;28;20198;-73
2022/03/21 12:07:13;;;;;;;7.00;5.68;;;30.20;25.00;;;;;;5070456;28;20724;-72
2022/03/21 12:09:40;;;;;;;7.15;6.20;;;29.70;25.10;;;;;;5065853;28;20215;-71
2022/03/21 12:12:07;;;;;;;6.40;5.80;;;30.00;25.20;;;;;;5064810;28;20183;-72
2022/03/21 12:14:40;;;;;;;6.55;6.05;;;31.10;25.00;;;;;;5058207;28;20555;-72
2022/03/21 12:17:08;;;;;;;6.18;5.78;;;32.10;24.70;;;;;;5056769;28;20185;-72
2022/03/21 12:19:54;;;;;;;7.43;6.00;;;32.00;25.00;;;;;;5060423;28;20176;-73
2022/03/21 12:22:36;;;;;;;6.70;6.10;;;31.40;25.30;;;;;;5063293;28;20213;-73
2022/03/21 12:25:07;;;;;;;6.90;6.30;;;31.30;25.50;;;;;;5064946;28;20210;-73
2022/03/21 12:27:35;;;;;;;6.43;5.80;;;31.70;25.70;;;;;;5069989;28;20214;-73
2022/03/21 12:30:32;;;;;;;6.53;5.95;;;31.80;25.10;;;;;;5063077;28;20234;-72
2022/03/21 12:33:09;;;;;;;6.97;6.20;;;32.50;24.90;;;;;;5065781;28;20548;-73
2022/03/21 12:35:35;;;;;;;7.55;6.80;;;32.90;25.30;;;;;;5063078;28;20190;-70
2022/03/21 12:38:07;;;;;;;9.38;6.30;;;33.00;25.00;;;;;;5060870;28;20202;-70
2022/03/21 12:40:35;;;;;;;6.20;5.80;;;33.30;25.00;;;;;;5062313;28;20578;-71
2022/03/21 12:43:02;;;;;;;6.00;5.60;;;32.10;25.10;;;;;;5064546;28;20187;-71
2022/03/21 12:45:32;;;;;;;6.03;5.53;;;31.00;25.60;;;;;;5066911;28;20205;-70
2022/03/21 12:48:05;;;;;;;6.65;6.15;;;29.90;26.20;;;;;;5060336;28;20197;-70
2022/03/21 12:50:32;;;;;;;6.72;6.22;;;30.10;26.50;;;;;;5061650;28;20198;-71
2022/03/21 12:53:11;;;;;;;6.00;5.60;;;30.40;25.30;;;;;;5059657;28;20308;-71
2022/03/21 12:55:38;;;;;;;6.38;5.75;;;30.70;25.80;;;;;;5067542;28;20194;-71
2022/03/21 12:58:11;;;;;;;6.78;6.07;;;31.00;26.50;;;;;;5052697;28;20183;-72
2022/03/21 13:00:42;;;;;;;6.43;5.82;;;31.70;25.70;;;;;;5065395;28;20312;-75
2022/03/21 13:03:13;;;;;;;7.55;6.85;;;31.00;25.50;;;;;;5064438;28;20239;-71
2022/03/21 13:11:24;;;;;;;6.82;6.22;;;30.40;26.30;;;;;;5062045;28;20190;-74
2022/03/21 13:13:55;;;;;;;7.03;5.80;;;30.00;25.80;;;;;;5062817;28;20204;-71
2022/03/21 13:16:22;;;;;;;7.03;6.35;;;30.00;26.50;;;;;;5061592;28;20597;-71
2022/03/21 13:18:52;;;;;;;7.28;6.60;;;30.40;26.00;;;;;;5060032;28;20258;-72
2022/03/21 13:21:19;;;;;;;7.40;6.70;;;30.50;26.10;;;;;;5060970;28;20271;-72
2022/03/21 13:23:46;;;;;;;7.72;6.70;;;29.60;25.90;;;;;;5067771;28;21630;-72
2022/03/21 13:26:23;;;;;;;6.97;6.47;;;28.70;26.30;;;;;;5063864;28;20716;-73
2022/03/21 13:28:50;;;;;;;7.50;6.90;;;28.40;27.10;;;;;;5063972;28;20268;-73